Winnipeg James Armstrong Richardson International Airport
CYWG : now visible

Airfield :











YOU CAN JOIN US ON...

 
LOGIN :

Register | Disclaimer

   EN    FR    IT 

 









Legend :    VFR   Marginal VFR   IFR   Intensive IFR   Very Intensive IFR
Visi :
Ceiling :
>= 8 km
>= 3000ft
5 to 8 km
1000 to 3000 ft
1500m to 5 km
500 to 1000 ft
800 to 1500m
200 to 500 ft
< 800m
< 200 ft
Symbols :   Thunderstorms  Fog  Heavy snow  Heavy precipitations  Wind > 20 kt






- Airport Elevation : 783 ft
- IATA code : YWG


CYWG - Winnipeg James Armstrong Richardson International

CURRENT METAR :
  • 140100Z 35013KT 15SM IC DRSN FEW080 M16/M20 A3003 RMK AC1 SLP193

EXPIRED METARs :
  • 140000Z 35011KT 6SM -SN DRSN FEW028 SCT040 OVC084 M14/M18 A3001 RMK SC1SC2AC5 SLP186
  • 132300Z 35012KT 6SM -SN DRSN FEW038 BKN091 M13/M16 A2999 RMK SC2AC5 SLP179

TAF TAF CYWG
Valid from the 14 at 00:00 until the 15 at 00:00 UTC


132343Z 1400/1424 36012KT P6SM SCT030 BKN090
TEMPO 1400/1402 5SM -SN FEW010 BKN030 OVC090
FM140200 35015KT P6SM SCT030
TEMPO 1402/1406 6SM -SN BKN020 BKN040
FM140600 34015KT P6SM SCT020
BECMG 1410/1412 34010KT
FM141800 32010KT P6SM SKC RMK NXT FCST BY 140600Z



MET'MAP, your aeronautical weather chart ! - Copyright ORBIFLY December 2007 - Disclaimer

ORBIFLY MET'MAP TEAM :

Programming & Development : Alexandra Zaïnal
Concept & original design : Baudouin d'Aumeries
Assistance for programming : Marc-Olivier Méhu
Technical & hardware support : Manuel Goepfert

Contact : metmap@orbifly.com




SOURCES & CREDITS :

   NOAA       Earth
Advisory